sensor_id;sensor_type;location;lat;lon;timestamp;P1;durP1;ratioP1;P2;durP2;ratioP2
16401;SDS011;8310;44.626;11.176;2022-09-09T00:01:15;5.82;;;4.63;;
16401;SDS011;8310;44.626;11.176;2022-09-09T00:03:57;5.10;;;4.25;;
16401;SDS011;8310;44.626;11.176;2022-09-09T00:06:28;6.05;;;4.45;;
16401;SDS011;8310;44.626;11.176;2022-09-09T00:09:00;5.95;;;4.60;;
16401;SDS011;8310;44.626;11.176;2022-09-09T00:11:33;5.03;;;4.53;;
16401;SDS011;8310;44.626;11.176;2022-09-09T00:14:16;6.70;;;4.72;;
16401;SDS011;8310;44.626;11.176;2022-09-09T00:16:50;5.22;;;4.63;;
16401;SDS011;8310;44.626;11.176;2022-09-09T00:19:23;5.22;;;4.63;;
16401;SDS011;8310;44.626;11.176;2022-09-09T00:22:00;6.35;;;4.97;;
16401;SDS011;8310;44.626;11.176;2022-09-09T00:24:42;6.32;;;5.32;;
16401;SDS011;8310;44.626;11.176;2022-09-09T00:27:16;5.70;;;5.20;;
16401;SDS011;8310;44.626;11.176;2022-09-09T00:29:52;5.30;;;4.68;;
16401;SDS011;8310;44.626;11.176;2022-09-09T00:32:24;5.35;;;4.88;;
16401;SDS011;8310;44.626;11.176;2022-09-09T00:34:56;4.85;;;4.45;;
16401;SDS011;8310;44.626;11.176;2022-09-09T00:37:30;6.88;;;5.00;;
16401;SDS011;8310;44.626;11.176;2022-09-09T00:40:01;5.88;;;4.40;;
16401;SDS011;8310;44.626;11.176;2022-09-09T00:42:34;5.07;;;4.68;;
16401;SDS011;8310;44.626;11.176;2022-09-09T00:45:15;6.28;;;5.10;;
16401;SDS011;8310;44.626;11.176;2022-09-09T00:47:55;4.80;;;4.20;;
16401;SDS011;8310;44.626;11.176;2022-09-09T00:50:33;4.63;;;4.13;;
16401;SDS011;8310;44.626;11.176;2022-09-09T00:53:09;4.57;;;4.03;;
16401;SDS011;8310;44.626;11.176;2022-09-09T00:55:48;7.55;;;5.28;;
16401;SDS011;8310;44.626;11.176;2022-09-09T00:58:20;7.07;;;4.60;;
16401;SDS011;8310;44.626;11.176;2022-09-09T01:00:50;4.78;;;4.28;;
16401;SDS011;8310;44.626;11.176;2022-09-09T01:03:26;4.07;;;3.80;;
16401;SDS011;8310;44.626;11.176;2022-09-09T01:06:01;6.00;;;3.90;;
16401;SDS011;8310;44.626;11.176;2022-09-09T01:08:52;5.70;;;4.15;;
16401;SDS011;8310;44.626;11.176;2022-09-09T01:11:32;5.05;;;4.55;;
16401;SDS011;8310;44.626;11.176;2022-09-09T01:14:10;6.90;;;4.88;;
16401;SDS011;8310;44.626;11.176;2022-09-09T01:16:47;8.00;;;5.65;;
16401;SDS011;8310;44.626;11.176;2022-09-09T01:19:18;5.43;;;4.53;;
16401;SDS011;8310;44.626;11.176;2022-09-09T01:21:56;5.93;;;4.65;;
16401;SDS011;8310;44.626;11.176;2022-09-09T01:24:34;5.78;;;4.78;;
16401;SDS011;8310;44.626;11.176;2022-09-09T01:27:07;5.75;;;5.25;;
16401;SDS011;8310;44.626;11.176;2022-09-09T01:29:36;7.07;;;5.57;;
16401;SDS011;8310;44.626;11.176;2022-09-09T01:35:06;7.03;;;4.65;;
16401;SDS011;8310;44.626;11.176;2022-09-09T01:37:37;6.47;;;5.22;;
16401;SDS011;8310;44.626;11.176;2022-09-09T01:40:07;6.75;;;5.47;;
16401;SDS011;8310;44.626;11.176;2022-09-09T01:42:37;6.00;;;5.47;;
16401;SDS011;8310;44.626;11.176;2022-09-09T01:45:09;5.43;;;4.93;;
16401;SDS011;8310;44.626;11.176;2022-09-09T01:47:37;5.18;;;4.68;;
16401;SDS011;8310;44.626;11.176;2022-09-09T01:50:05;5.63;;;5.05;;
16401;SDS011;8310;44.626;11.176;2022-09-09T01:52:35;9.65;;;5.45;;
16401;SDS011;8310;44.626;11.176;2022-09-09T01:55:03;6.70;;;5.10;;
16401;SDS011;8310;44.626;11.176;2022-09-09T01:57:33;5.65;;;5.07;;
16401;SDS011;8310;44.626;11.176;2022-09-09T02:00:09;5.85;;;5.35;;
16401;SDS011;8310;44.626;11.176;2022-09-09T02:02:39;5.78;;;4.93;;
16401;SDS011;8310;44.626;11.176;2022-09-09T02:05:18;6.28;;;5.53;;
16401;SDS011;8310;44.626;11.176;2022-09-09T02:07:58;6.25;;;5.55;;
16401;SDS011;8310;44.626;11.176;2022-09-09T02:10:33;6.65;;;5.60;;
16401;SDS011;8310;44.626;11.176;2022-09-09T02:13:07;7.47;;;5.80;;
16401;SDS011;8310;44.626;11.176;2022-09-09T02:15:41;7.35;;;6.75;;
16401;SDS011;8310;44.626;11.176;2022-09-09T02:18:13;6.97;;;6.30;;
16401;SDS011;8310;44.626;11.176;2022-09-09T02:20:45;9.50;;;6.63;;
16401;SDS011;8310;44.626;11.176;2022-09-09T02:23:14;6.68;;;6.05;;
16401;SDS011;8310;44.626;11.176;2022-09-09T02:25:42;7.10;;;6.40;;
16401;SDS011;8310;44.626;11.176;2022-09-09T02:28:11;6.35;;;5.75;;
16401;SDS011;8310;44.626;11.176;2022-09-09T02:30:43;6.93;;;5.60;;
16401;SDS011;8310;44.626;11.176;2022-09-09T02:33:12;6.70;;;5.95;;
16401;SDS011;8310;44.626;11.176;2022-09-09T02:35:41;7.03;;;6.32;;
16401;SDS011;8310;44.626;11.176;2022-09-09T02:38:10;6.85;;;6.15;;
16401;SDS011;8310;44.626;11.176;2022-09-09T02:40:39;6.38;;;5.78;;
16401;SDS011;8310;44.626;11.176;2022-09-09T02:43:07;5.00;;;4.70;;
16401;SDS011;8310;44.626;11.176;2022-09-09T02:45:36;6.28;;;5.78;;
16401;SDS011;8310;44.626;11.176;2022-09-09T02:48:11;6.13;;;5.65;;
16401;SDS011;8310;44.626;11.176;2022-09-09T02:50:48;8.07;;;6.18;;
16401;SDS011;8310;44.626;11.176;2022-09-09T02:53:24;7.65;;;6.93;;
16401;SDS011;8310;44.626;11.176;2022-09-09T02:55:59;10.95;;;8.15;;
16401;SDS011;8310;44.626;11.176;2022-09-09T02:58:31;9.07;;;7.53;;
16401;SDS011;8310;44.626;11.176;2022-09-09T03:00:59;8.98;;;7.72;;
16401;SDS011;8310;44.626;11.176;2022-09-09T03:03:29;7.40;;;6.22;;
16401;SDS011;8310;44.626;11.176;2022-09-09T03:05:57;8.35;;;6.55;;
16401;SDS011;8310;44.626;11.176;2022-09-09T03:08:28;7.78;;;7.07;;
16401;SDS011;8310;44.626;11.176;2022-09-09T03:10:57;8.65;;;6.50;;
16401;SDS011;8310;44.626;11.176;2022-09-09T03:13:26;7.80;;;6.80;;
16401;SDS011;8310;44.626;11.176;2022-09-09T03:15:54;7.32;;;6.63;;
16401;SDS011;8310;44.626;11.176;2022-09-09T03:18:21;7.60;;;7.00;;
16401;SDS011;8310;44.626;11.176;2022-09-09T03:20:50;7.72;;;6.57;;
16401;SDS011;8310;44.626;11.176;2022-09-09T03:23:19;7.47;;;6.75;;
16401;SDS011;8310;44.626;11.176;2022-09-09T03:25:47;7.13;;;6.28;;
16401;SDS011;8310;44.626;11.176;2022-09-09T03:28:14;8.30;;;6.85;;
16401;SDS011;8310;44.626;11.176;2022-09-09T03:30:42;9.27;;;6.57;;
16401;SDS011;8310;44.626;11.176;2022-09-09T03:33:10;7.28;;;6.68;;
16401;SDS011;8310;44.626;11.176;2022-09-09T03:35:44;7.57;;;6.90;;
16401;SDS011;8310;44.626;11.176;2022-09-09T03:38:15;7.90;;;7.20;;
16401;SDS011;8310;44.626;11.176;2022-09-09T03:40:48;7.95;;;7.00;;
16401;SDS011;8310;44.626;11.176;2022-09-09T03:43:16;8.65;;;6.57;;
16401;SDS011;8310;44.626;11.176;2022-09-09T03:45:45;8.80;;;7.00;;
16401;SDS011;8310;44.626;11.176;2022-09-09T03:48:13;9.65;;;7.22;;
16401;SDS011;8310;44.626;11.176;2022-09-09T03:50:44;7.57;;;6.53;;
16401;SDS011;8310;44.626;11.176;2022-09-09T03:53:12;7.95;;;6.90;;
16401;SDS011;8310;44.626;11.176;2022-09-09T03:55:44;8.73;;;7.38;;
16401;SDS011;8310;44.626;11.176;2022-09-09T03:58:12;8.52;;;7.53;;
16401;SDS011;8310;44.626;11.176;2022-09-09T04:00:40;8.82;;;7.63;;
16401;SDS011;8310;44.626;11.176;2022-09-09T04:03:10;8.88;;;8.07;;
16401;SDS011;8310;44.626;11.176;2022-09-09T04:05:39;8.55;;;7.10;;
16401;SDS011;8310;44.626;11.176;2022-09-09T04:08:07;9.80;;;7.25;;
16401;SDS011;8310;44.626;11.176;2022-09-09T04:10:35;8.75;;;7.60;;
16401;SDS011;8310;44.626;11.176;2022-09-09T04:13:04;8.00;;;7.20;;
16401;SDS011;8310;44.626;11.176;2022-09-09T04:15:32;8.45;;;7.60;;
16401;SDS011;8310;44.626;11.176;2022-09-09T04:18:00;7.75;;;6.88;;
16401;SDS011;8310;44.626;11.176;2022-09-09T04:20:28;9.75;;;6.95;;
16401;SDS011;8310;44.626;11.176;2022-09-09T04:23:00;8.27;;;7.57;;
16401;SDS011;8310;44.626;11.176;2022-09-09T04:25:28;7.57;;;6.35;;
16401;SDS011;8310;44.626;11.176;2022-09-09T04:27:56;8.35;;;6.13;;
16401;SDS011;8310;44.626;11.176;2022-09-09T04:30:25;6.50;;;5.88;;
16401;SDS011;8310;44.626;11.176;2022-09-09T04:32:53;7.22;;;6.22;;
16401;SDS011;8310;44.626;11.176;2022-09-09T04:35:20;7.40;;;5.93;;
16401;SDS011;8310;44.626;11.176;2022-09-09T04:37:48;6.95;;;6.20;;
16401;SDS011;8310;44.626;11.176;2022-09-09T04:40:15;6.72;;;6.05;;
16401;SDS011;8310;44.626;11.176;2022-09-09T04:42:43;6.60;;;5.30;;
16401;SDS011;8310;44.626;11.176;2022-09-09T04:45:13;6.47;;;5.28;;
16401;SDS011;8310;44.626;11.176;2022-09-09T04:47:42;6.63;;;6.00;;
16401;SDS011;8310;44.626;11.176;2022-09-09T04:50:10;6.13;;;5.22;;
16401;SDS011;8310;44.626;11.176;2022-09-09T04:52:37;8.27;;;6.45;;
16401;SDS011;8310;44.626;11.176;2022-09-09T04:55:05;6.30;;;5.75;;
16401;SDS011;8310;44.626;11.176;2022-09-09T04:57:34;6.72;;;5.88;;
16401;SDS011;8310;44.626;11.176;2022-09-09T05:00:03;7.43;;;5.55;;
16401;SDS011;8310;44.626;11.176;2022-09-09T05:02:30;8.05;;;5.50;;
16401;SDS011;8310;44.626;11.176;2022-09-09T05:05:00;5.65;;;5.22;;
16401;SDS011;8310;44.626;11.176;2022-09-09T05:07:28;6.22;;;5.60;;
16401;SDS011;8310;44.626;11.176;2022-09-09T05:09:56;6.65;;;5.68;;
16401;SDS011;8310;44.626;11.176;2022-09-09T05:12:24;5.70;;;5.10;;
16401;SDS011;8310;44.626;11.176;2022-09-09T05:14:51;6.75;;;6.15;;
16401;SDS011;8310;44.626;11.176;2022-09-09T05:17:19;6.80;;;6.15;;
16401;SDS011;8310;44.626;11.176;2022-09-09T05:19:47;7.78;;;6.55;;
16401;SDS011;8310;44.626;11.176;2022-09-09T05:22:19;7.30;;;5.70;;
16401;SDS011;8310;44.626;11.176;2022-09-09T05:24:48;6.70;;;6.03;;
16401;SDS011;8310;44.626;11.176;2022-09-09T05:27:16;8.93;;;5.93;;
16401;SDS011;8310;44.626;11.176;2022-09-09T05:29:44;7.45;;;6.30;;
16401;SDS011;8310;44.626;11.176;2022-09-09T05:32:13;6.68;;;6.07;;
16401;SDS011;8310;44.626;11.176;2022-09-09T05:34:40;6.07;;;5.47;;
16401;SDS011;8310;44.626;11.176;2022-09-09T05:37:08;6.55;;;5.28;;
16401;SDS011;8310;44.626;11.176;2022-09-09T05:39:36;6.68;;;5.97;;
16401;SDS011;8310;44.626;11.176;2022-09-09T05:42:04;7.00;;;5.65;;
16401;SDS011;8310;44.626;11.176;2022-09-09T05:44:32;9.13;;;5.28;;
16401;SDS011;8310;44.626;11.176;2022-09-09T05:47:00;5.45;;;4.95;;
16401;SDS011;8310;44.626;11.176;2022-09-09T05:49:27;7.70;;;5.72;;
16401;SDS011;8310;44.626;11.176;2022-09-09T05:51:55;5.75;;;5.22;;
16401;SDS011;8310;44.626;11.176;2022-09-09T05:54:23;6.35;;;5.20;;
16401;SDS011;8310;44.626;11.176;2022-09-09T05:56:51;5.13;;;4.72;;
16401;SDS011;8310;44.626;11.176;2022-09-09T05:59:19;5.00;;;4.35;;
16401;SDS011;8310;44.626;11.176;2022-09-09T06:01:48;6.68;;;4.30;;
16401;SDS011;8310;44.626;11.176;2022-09-09T06:04:16;5.07;;;4.40;;
16401;SDS011;8310;44.626;11.176;2022-09-09T06:06:46;9.25;;;4.38;;
16401;SDS011;8310;44.626;11.176;2022-09-09T06:09:13;8.25;;;4.45;;
16401;SDS011;8310;44.626;11.176;2022-09-09T06:11:41;4.78;;;4.38;;
16401;SDS011;8310;44.626;11.176;2022-09-09T06:14:11;4.30;;;4.00;;
16401;SDS011;8310;44.626;11.176;2022-09-09T06:16:38;5.43;;;4.35;;
16401;SDS011;8310;44.626;11.176;2022-09-09T06:19:09;7.25;;;3.85;;
16401;SDS011;8310;44.626;11.176;2022-09-09T06:21:37;3.80;;;3.50;;
16401;SDS011;8310;44.626;11.176;2022-09-09T06:24:05;5.53;;;3.88;;
16401;SDS011;8310;44.626;11.176;2022-09-09T06:26:34;4.55;;;3.97;;
16401;SDS011;8310;44.626;11.176;2022-09-09T06:29:03;3.92;;;3.60;;
16401;SDS011;8310;44.626;11.176;2022-09-09T06:31:34;5.50;;;3.78;;
16401;SDS011;8310;44.626;11.176;2022-09-09T06:34:05;4.20;;;3.90;;
16401;SDS011;8310;44.626;11.176;2022-09-09T06:36:34;5.03;;;3.40;;
16401;SDS011;8310;44.626;11.176;2022-09-09T06:39:03;5.70;;;3.50;;
16401;SDS011;8310;44.626;11.176;2022-09-09T06:41:31;3.75;;;3.40;;
16401;SDS011;8310;44.626;11.176;2022-09-09T06:43:59;6.53;;;4.00;;
16401;SDS011;8310;44.626;11.176;2022-09-09T06:46:28;3.80;;;3.50;;
16401;SDS011;8310;44.626;11.176;2022-09-09T06:48:59;5.38;;;4.05;;
16401;SDS011;8310;44.626;11.176;2022-09-09T06:51:28;4.88;;;4.05;;
16401;SDS011;8310;44.626;11.176;2022-09-09T06:53:57;4.80;;;4.40;;
16401;SDS011;8310;44.626;11.176;2022-09-09T06:56:27;4.53;;;4.05;;
16401;SDS011;8310;44.626;11.176;2022-09-09T06:58:55;5.50;;;4.00;;
16401;SDS011;8310;44.626;11.176;2022-09-09T07:01:26;4.80;;;4.35;;
16401;SDS011;8310;44.626;11.176;2022-09-09T07:03:55;4.45;;;3.90;;
16401;SDS011;8310;44.626;11.176;2022-09-09T07:06:25;6.60;;;3.97;;
16401;SDS011;8310;44.626;11.176;2022-09-09T07:08:54;4.93;;;4.30;;
16401;SDS011;8310;44.626;11.176;2022-09-09T07:11:26;8.02;;;4.13;;
16401;SDS011;8310;44.626;11.176;2022-09-09T07:13:55;6.05;;;4.28;;
16401;SDS011;8310;44.626;11.176;2022-09-09T07:16:24;4.40;;;4.00;;
16401;SDS011;8310;44.626;11.176;2022-09-09T07:18:53;6.63;;;4.93;;
16401;SDS011;8310;44.626;11.176;2022-09-09T07:21:23;6.38;;;3.92;;
16401;SDS011;8310;44.626;11.176;2022-09-09T07:23:53;4.50;;;4.10;;
16401;SDS011;8310;44.626;11.176;2022-09-09T07:26:22;5.40;;;4.28;;
16401;SDS011;8310;44.626;11.176;2022-09-09T07:28:50;4.65;;;4.30;;
16401;SDS011;8310;44.626;11.176;2022-09-09T07:31:18;7.60;;;4.88;;
16401;SDS011;8310;44.626;11.176;2022-09-09T07:33:47;7.00;;;4.95;;
16401;SDS011;8310;44.626;11.176;2022-09-09T07:36:16;5.70;;;4.70;;
16401;SDS011;8310;44.626;11.176;2022-09-09T07:38:49;7.38;;;5.53;;
16401;SDS011;8310;44.626;11.176;2022-09-09T07:41:19;7.85;;;6.32;;
16401;SDS011;8310;44.626;11.176;2022-09-09T07:43:49;6.47;;;5.57;;
16401;SDS011;8310;44.626;11.176;2022-09-09T07:46:19;10.05;;;5.88;;
16401;SDS011;8310;44.626;11.176;2022-09-09T07:48:48;7.97;;;6.05;;
16401;SDS011;8310;44.626;11.176;2022-09-09T07:51:18;7.45;;;5.80;;
16401;SDS011;8310;44.626;11.176;2022-09-09T07:53:51;8.93;;;5.70;;
16401;SDS011;8310;44.626;11.176;2022-09-09T07:56:20;7.63;;;6.28;;
16401;SDS011;8310;44.626;11.176;2022-09-09T07:58:48;6.45;;;5.78;;
16401;SDS011;8310;44.626;11.176;2022-09-09T08:01:17;7.47;;;5.95;;
16401;SDS011;8310;44.626;11.176;2022-09-09T08:03:51;9.38;;;7.28;;
16401;SDS011;8310;44.626;11.176;2022-09-09T08:06:21;9.15;;;8.25;;
16401;SDS011;8310;44.626;11.176;2022-09-09T08:08:51;8.65;;;7.55;;
16401;SDS011;8310;44.626;11.176;2022-09-09T08:11:20;10.18;;;9.27;;
16401;SDS011;8310;44.626;11.176;2022-09-09T08:13:50;10.73;;;9.65;;
16401;SDS011;8310;44.626;11.176;2022-09-09T08:16:19;14.18;;;12.75;;
16401;SDS011;8310;44.626;11.176;2022-09-09T08:18:48;14.07;;;12.70;;
16401;SDS011;8310;44.626;11.176;2022-09-09T08:21:17;14.30;;;12.85;;
16401;SDS011;8310;44.626;11.176;2022-09-09T08:23:45;13.73;;;12.43;;
16401;SDS011;8310;44.626;11.176;2022-09-09T08:26:16;13.18;;;11.77;;
16401;SDS011;8310;44.626;11.176;2022-09-09T08:28:47;13.68;;;12.27;;
16401;SDS011;8310;44.626;11.176;2022-09-09T08:31:17;13.38;;;12.05;;
16401;SDS011;8310;44.626;11.176;2022-09-09T08:33:45;13.32;;;12.02;;
16401;SDS011;8310;44.626;11.176;2022-09-09T08:36:14;11.63;;;10.55;;
16401;SDS011;8310;44.626;11.176;2022-09-09T08:38:43;12.70;;;11.43;;
16401;SDS011;8310;44.626;11.176;2022-09-09T08:41:20;12.65;;;11.35;;
16401;SDS011;8310;44.626;11.176;2022-09-09T08:44:00;11.63;;;10.45;;
16401;SDS011;8310;44.626;11.176;2022-09-09T08:46:32;11.80;;;9.40;;
16401;SDS011;8310;44.626;11.176;2022-09-09T08:49:14;10.23;;;9.23;;
16401;SDS011;8310;44.626;11.176;2022-09-09T08:54:38;9.90;;;8.70;;
16401;SDS011;8310;44.626;11.176;2022-09-09T08:57:09;10.05;;;7.35;;
16401;SDS011;8310;44.626;11.176;2022-09-09T08:59:41;8.18;;;7.43;;
16401;SDS011;8310;44.626;11.176;2022-09-09T09:02:12;7.13;;;6.53;;
16401;SDS011;8310;44.626;11.176;2022-09-09T09:04:50;7.18;;;6.40;;
16401;SDS011;8310;44.626;11.176;2022-09-09T09:07:29;7.10;;;6.40;;
16401;SDS011;8310;44.626;11.176;2022-09-09T09:10:04;6.63;;;5.90;;
16401;SDS011;8310;44.626;11.176;2022-09-09T09:12:43;7.38;;;5.22;;
16401;SDS011;8310;44.626;11.176;2022-09-09T09:15:14;6.05;;;5.45;;
16401;SDS011;8310;44.626;11.176;2022-09-09T09:17:44;7.22;;;6.53;;
16401;SDS011;8310;44.626;11.176;2022-09-09T09:20:12;5.60;;;5.20;;
16401;SDS011;8310;44.626;11.176;2022-09-09T09:22:44;5.55;;;4.65;;
16401;SDS011;8310;44.626;11.176;2022-09-09T09:25:16;5.97;;;4.88;;
16401;SDS011;8310;44.626;11.176;2022-09-09T09:27:49;4.78;;;3.95;;
16401;SDS011;8310;44.626;11.176;2022-09-09T09:30:25;4.78;;;4.35;;
16401;SDS011;8310;44.626;11.176;2022-09-09T09:32:55;5.00;;;4.50;;
16401;SDS011;8310;44.626;11.176;2022-09-09T09:35:26;5.28;;;4.40;;
16401;SDS011;8310;44.626;11.176;2022-09-09T09:37:54;7.55;;;4.43;;
16401;SDS011;8310;44.626;11.176;2022-09-09T09:40:22;5.13;;;4.57;;
16401;SDS011;8310;44.626;11.176;2022-09-09T09:43:00;5.30;;;3.53;;
16401;SDS011;8310;44.626;11.176;2022-09-09T09:45:34;4.20;;;3.33;;
16401;SDS011;8310;44.626;11.176;2022-09-09T09:48:09;3.08;;;2.88;;
16401;SDS011;8310;44.626;11.176;2022-09-09T09:50:40;5.43;;;3.63;;
16401;SDS011;8310;44.626;11.176;2022-09-09T09:53:20;4.03;;;2.65;;
16401;SDS011;8310;44.626;11.176;2022-09-09T09:55:52;4.32;;;3.92;;
16401;SDS011;8310;44.626;11.176;2022-09-09T09:58:23;4.65;;;3.30;;
16401;SDS011;8310;44.626;11.176;2022-09-09T10:00:54;3.03;;;2.72;;
16401;SDS011;8310;44.626;11.176;2022-09-09T10:03:22;3.67;;;3.13;;
16401;SDS011;8310;44.626;11.176;2022-09-09T10:05:51;4.10;;;3.70;;
16401;SDS011;8310;44.626;11.176;2022-09-09T10:08:19;3.42;;;3.22;;
16401;SDS011;8310;44.626;11.176;2022-09-09T10:10:59;3.30;;;3.10;;
16401;SDS011;8310;44.626;11.176;2022-09-09T10:13:39;5.32;;;3.40;;
16401;SDS011;8310;44.626;11.176;2022-09-09T10:16:19;4.13;;;2.58;;
16401;SDS011;8310;44.626;11.176;2022-09-09T10:18:57;2.50;;;2.30;;
16401;SDS011;8310;44.626;11.176;2022-09-09T10:21:43;4.07;;;2.25;;
16401;SDS011;8310;44.626;11.176;2022-09-09T10:24:54;5.95;;;3.33;;
16401;SDS011;8310;44.626;11.176;2022-09-09T10:27:42;4.80;;;3.10;;
16401;SDS011;8310;44.626;11.176;2022-09-09T10:30:22;4.57;;;2.90;;
16401;SDS011;8310;44.626;11.176;2022-09-09T10:32:55;2.95;;;2.40;;
16401;SDS011;8310;44.626;11.176;2022-09-09T10:35:29;3.65;;;2.80;;
16401;SDS011;8310;44.626;11.176;2022-09-09T10:38:05;2.53;;;2.10;;
16401;SDS011;8310;44.626;11.176;2022-09-09T10:40:41;2.83;;;2.40;;
16401;SDS011;8310;44.626;11.176;2022-09-09T10:43:15;2.95;;;2.40;;
16401;SDS011;8310;44.626;11.176;2022-09-09T10:45:52;5.00;;;2.63;;
16401;SDS011;8310;44.626;11.176;2022-09-09T10:48:31;2.53;;;2.10;;
16401;SDS011;8310;44.626;11.176;2022-09-09T10:51:22;4.00;;;2.63;;
16401;SDS011;8310;44.626;11.176;2022-09-09T10:54:01;5.03;;;2.60;;
16401;SDS011;8310;44.626;11.176;2022-09-09T10:56:39;1.92;;;1.83;;
16401;SDS011;8310;44.626;11.176;2022-09-09T10:59:10;2.50;;;2.00;;
16401;SDS011;8310;44.626;11.176;2022-09-09T11:01:44;2.53;;;2.33;;
16401;SDS011;8310;44.626;11.176;2022-09-09T11:04:16;2.20;;;2.10;;
16401;SDS011;8310;44.626;11.176;2022-09-09T11:06:49;2.63;;;1.80;;
16401;SDS011;8310;44.626;11.176;2022-09-09T11:09:21;2.83;;;2.22;;
16401;SDS011;8310;44.626;11.176;2022-09-09T11:11:53;2.33;;;2.10;;
16401;SDS011;8310;44.626;11.176;2022-09-09T11:14:24;6.20;;;2.65;;
16401;SDS011;8310;44.626;11.176;2022-09-09T11:16:58;3.05;;;1.95;;
16401;SDS011;8310;44.626;11.176;2022-09-09T11:19:32;2.40;;;2.20;;
16401;SDS011;8310;44.626;11.176;2022-09-09T11:22:02;3.42;;;1.92;;
16401;SDS011;8310;44.626;11.176;2022-09-09T11:24:35;3.13;;;2.03;;
16401;SDS011;8310;44.626;11.176;2022-09-09T11:27:07;2.63;;;2.03;;
16401;SDS011;8310;44.626;11.176;2022-09-09T11:35:41;2.45;;;1.92;;
16401;SDS011;8310;44.626;11.176;2022-09-09T11:38:19;3.92;;;2.65;;
16401;SDS011;8310;44.626;11.176;2022-09-09T11:40:55;2.42;;;2.08;;
16401;SDS011;8310;44.626;11.176;2022-09-09T11:43:27;3.28;;;2.40;;
16401;SDS011;8310;44.626;11.176;2022-09-09T11:45:58;2.25;;;2.00;;
16401;SDS011;8310;44.626;11.176;2022-09-09T11:51:12;3.95;;;2.97;;
16401;SDS011;8310;44.626;11.176;2022-09-09T11:53:53;2.50;;;2.30;;
16401;SDS011;8310;44.626;11.176;2022-09-09T11:56:24;3.63;;;2.90;;
16401;SDS011;8310;44.626;11.176;2022-09-09T11:58:55;6.32;;;2.80;;
16401;SDS011;8310;44.626;11.176;2022-09-09T12:01:29;4.32;;;2.70;;
16401;SDS011;8310;44.626;11.176;2022-09-09T12:06:57;2.38;;;2.13;;
16401;SDS011;8310;44.626;11.176;2022-09-09T12:09:29;2.38;;;2.20;;
16401;SDS011;8310;44.626;11.176;2022-09-09T12:12:22;2.53;;;2.35;;
16401;SDS011;8310;44.626;11.176;2022-09-09T12:14:55;3.15;;;2.67;;
16401;SDS011;8310;44.626;11.176;2022-09-09T12:17:29;5.45;;;2.53;;
16401;SDS011;8310;44.626;11.176;2022-09-09T12:20:08;3.28;;;1.88;;
16401;SDS011;8310;44.626;11.176;2022-09-09T12:22:43;3.28;;;2.00;;
16401;SDS011;8310;44.626;11.176;2022-09-09T12:25:21;2.15;;;1.65;;
16401;SDS011;8310;44.626;11.176;2022-09-09T12:28:02;2.88;;;1.70;;
16401;SDS011;8310;44.626;11.176;2022-09-09T12:30:39;1.92;;;1.73;;
16401;SDS011;8310;44.626;11.176;2022-09-09T12:33:12;2.03;;;1.80;;
16401;SDS011;8310;44.626;11.176;2022-09-09T12:35:45;2.47;;;1.90;;
16401;SDS011;8310;44.626;11.176;2022-09-09T12:38:19;3.67;;;2.03;;
16401;SDS011;8310;44.626;11.176;2022-09-09T12:40:56;2.78;;;2.00;;
16401;SDS011;8310;44.626;11.176;2022-09-09T12:43:25;1.98;;;1.65;;
16401;SDS011;8310;44.626;11.176;2022-09-09T12:45:55;2.10;;;1.90;;
16401;SDS011;8310;44.626;11.176;2022-09-09T12:48:27;5.13;;;2.70;;
16401;SDS011;8310;44.626;11.176;2022-09-09T12:51:00;4.50;;;2.83;;
16401;SDS011;8310;44.626;11.176;2022-09-09T12:53:29;5.95;;;3.00;;
16401;SDS011;8310;44.626;11.176;2022-09-09T12:56:01;3.78;;;3.05;;
16401;SDS011;8310;44.626;11.176;2022-09-09T12:58:30;8.10;;;3.55;;
16401;SDS011;8310;44.626;11.176;2022-09-09T13:01:00;4.13;;;3.58;;
16401;SDS011;8310;44.626;11.176;2022-09-09T13:03:30;4.03;;;3.30;;
16401;SDS011;8310;44.626;11.176;2022-09-09T13:06:11;4.72;;;3.35;;
16401;SDS011;8310;44.626;11.176;2022-09-09T13:08:40;5.38;;;2.88;;
16401;SDS011;8310;44.626;11.176;2022-09-09T13:11:09;3.92;;;3.08;;
16401;SDS011;8310;44.626;11.176;2022-09-09T13:13:41;4.20;;;2.80;;
16401;SDS011;8310;44.626;11.176;2022-09-09T13:16:18;6.05;;;2.97;;
16401;SDS011;8310;44.626;11.176;2022-09-09T13:18:49;3.45;;;2.65;;
16401;SDS011;8310;44.626;11.176;2022-09-09T13:21:18;4.05;;;2.78;;
16401;SDS011;8310;44.626;11.176;2022-09-09T13:23:48;4.82;;;2.97;;
16401;SDS011;8310;44.626;11.176;2022-09-09T13:26:21;5.75;;;3.28;;
16401;SDS011;8310;44.626;11.176;2022-09-09T13:28:50;5.10;;;2.80;;
16401;SDS011;8310;44.626;11.176;2022-09-09T13:31:21;2.67;;;2.22;;
16401;SDS011;8310;44.626;11.176;2022-09-09T13:33:49;4.63;;;2.80;;
16401;SDS011;8310;44.626;11.176;2022-09-09T13:36:26;3.08;;;2.85;;
16401;SDS011;8310;44.626;11.176;2022-09-09T13:38:56;3.00;;;2.60;;
16401;SDS011;8310;44.626;11.176;2022-09-09T13:41:28;3.35;;;2.60;;
16401;SDS011;8310;44.626;11.176;2022-09-09T13:43:58;2.80;;;2.60;;
16401;SDS011;8310;44.626;11.176;2022-09-09T13:46:30;5.35;;;2.90;;
16401;SDS011;8310;44.626;11.176;2022-09-09T13:49:00;5.13;;;2.83;;
16401;SDS011;8310;44.626;11.176;2022-09-09T13:51:32;4.78;;;2.45;;
16401;SDS011;8310;44.626;11.176;2022-09-09T13:54:02;3.05;;;2.85;;
16401;SDS011;8310;44.626;11.176;2022-09-09T13:56:31;3.40;;;2.47;;
16401;SDS011;8310;44.626;11.176;2022-09-09T13:58:58;2.88;;;2.40;;
16401;SDS011;8310;44.626;11.176;2022-09-09T14:01:26;3.17;;;2.30;;
16401;SDS011;8310;44.626;11.176;2022-09-09T14:03:55;2.88;;;2.13;;
16401;SDS011;8310;44.626;11.176;2022-09-09T14:06:22;2.20;;;2.10;;
16401;SDS011;8310;44.626;11.176;2022-09-09T14:08:52;2.95;;;2.50;;
16401;SDS011;8310;44.626;11.176;2022-09-09T14:11:20;2.85;;;2.15;;
16401;SDS011;8310;44.626;11.176;2022-09-09T14:13:48;2.95;;;1.88;;
16401;SDS011;8310;44.626;11.176;2022-09-09T14:16:16;3.95;;;2.35;;
16401;SDS011;8310;44.626;11.176;2022-09-09T14:18:43;3.63;;;2.20;;
16401;SDS011;8310;44.626;11.176;2022-09-09T14:21:11;2.15;;;2.00;;
16401;SDS011;8310;44.626;11.176;2022-09-09T14:23:39;4.90;;;2.10;;
16401;SDS011;8310;44.626;11.176;2022-09-09T14:26:08;2.25;;;1.90;;
16401;SDS011;8310;44.626;11.176;2022-09-09T14:28:36;3.72;;;2.35;;
16401;SDS011;8310;44.626;11.176;2022-09-09T14:31:05;2.38;;;2.05;;
16401;SDS011;8310;44.626;11.176;2022-09-09T14:33:33;4.97;;;1.98;;
16401;SDS011;8310;44.626;11.176;2022-09-09T14:36:03;2.25;;;2.05;;
16401;SDS011;8310;44.626;11.176;2022-09-09T14:38:31;2.25;;;2.10;;
16401;SDS011;8310;44.626;11.176;2022-09-09T14:41:03;2.72;;;2.05;;
16401;SDS011;8310;44.626;11.176;2022-09-09T14:43:33;2.28;;;2.10;;
16401;SDS011;8310;44.626;11.176;2022-09-09T14:46:04;3.13;;;2.25;;
16401;SDS011;8310;44.626;11.176;2022-09-09T14:48:32;2.20;;;2.03;;
16401;SDS011;8310;44.626;11.176;2022-09-09T14:51:04;3.22;;;2.30;;
16401;SDS011;8310;44.626;11.176;2022-09-09T14:53:33;2.25;;;1.90;;
16401;SDS011;8310;44.626;11.176;2022-09-09T14:56:05;2.70;;;2.00;;
16401;SDS011;8310;44.626;11.176;2022-09-09T14:58:34;2.40;;;2.00;;
16401;SDS011;8310;44.626;11.176;2022-09-09T15:01:03;2.78;;;2.17;;
16401;SDS011;8310;44.626;11.176;2022-09-09T15:03:32;2.67;;;1.92;;
16401;SDS011;8310;44.626;11.176;2022-09-09T15:06:04;2.45;;;2.10;;
16401;SDS011;8310;44.626;11.176;2022-09-09T15:08:33;2.83;;;1.98;;
16401;SDS011;8310;44.626;11.176;2022-09-09T15:11:01;5.05;;;2.17;;
16401;SDS011;8310;44.626;11.176;2022-09-09T15:13:30;2.20;;;2.00;;
16401;SDS011;8310;44.626;11.176;2022-09-09T15:16:04;3.25;;;2.45;;
16401;SDS011;8310;44.626;11.176;2022-09-09T15:18:32;2.08;;;1.92;;
16401;SDS011;8310;44.626;11.176;2022-09-09T15:21:01;2.63;;;2.20;;
16401;SDS011;8310;44.626;11.176;2022-09-09T15:23:30;5.90;;;2.40;;
16401;SDS011;8310;44.626;11.176;2022-09-09T15:25:58;5.80;;;2.58;;
16401;SDS011;8310;44.626;11.176;2022-09-09T15:28:26;2.10;;;2.00;;